Time;durP1;ratioP1;P1;durP2;ratioP2;P2;SDS_P1;SDS_P2;PMS_P1;PMS_P2;Temp;Humidity;BMP_temperature;BMP_pressure;BME280_temperature;BME280_humidity;BME280_pressure;Samples;Min_cycle;Max_cycle;Signal;HPM_P1;HPM_P2
2021/10/07 04:50:51;;;;;;;424.03;37.57;;;;;;;;;;5624103;23;1831974;-87
2021/10/07 04:53:21;;;;;;;378.27;36.90;;;;;;;;;;4863439;29;20042;-90
2021/10/07 04:55:50;;;;;;;303.77;32.47;;;;;;;;;;4855371;29;20046;-87
2021/10/07 04:58:18;;;;;;;105.70;28.80;;;;;;;;;;4863568;29;20041;-87
2021/10/07 05:00:45;;;;;;;114.82;30.08;;;;;;;;;;4840055;29;20132;-88
2021/10/07 05:03:13;;;;;;;236.52;36.20;;;;;;;;;;4849076;29;20041;-88
2021/10/07 05:05:42;;;;;;;137.32;29.05;;;;;;;;;;4845200;29;20048;-87
2021/10/07 05:08:11;;;;;;;119.50;27.08;;;;;;;;;;4827316;29;20398;-86
2021/10/07 05:10:39;;;;;;;131.55;26.70;;;;;;;;;;4840969;29;20045;-87
2021/10/07 05:13:06;;;;;;;199.82;31.52;;;;;;;;;;4842325;29;20063;-87
2021/10/07 05:15:34;;;;;;;384.80;35.33;;;;;;;;;;4845500;29;20046;-87
2021/10/07 05:18:01;;;;;;;111.95;24.02;;;;;;;;;;4852978;29;20558;-88
2021/10/07 05:20:29;;;;;;;121.53;25.95;;;;;;;;;;4844689;29;20081;-87
2021/10/07 05:22:57;;;;;;;171.15;27.20;;;;;;;;;;4841737;29;20061;-87
2021/10/07 10:21:32;;;;;;;7.93;6.57;;;;;;;;;;4827154;29;20402;-90
2021/10/07 10:24:14;;;;;;;8.00;6.40;;;;;;;;;;4863029;29;20132;-88
2021/10/07 10:27:09;;;;;;;7.40;6.80;;;;;;;;;;4880152;29;20049;-89
2021/10/07 10:30:23;;;;;;;7.75;7.10;;;;;;;;;;4876143;29;20053;-89
2021/10/07 10:33:00;;;;;;;8.48;7.03;;;;;;;;;;4872555;29;20502;-89
2021/10/07 10:35:43;;;;;;;9.18;6.93;;;;;;;;;;4854502;29;20132;-89
2021/10/07 10:38:18;;;;;;;6.93;6.32;;;;;;;;;;4866968;29;20176;-89
2021/10/07 10:48:19;;;;;;;;;;;;;;;;;;;;;
2021/10/07 11:01:51;;;;;;;7.10;6.45;;;;;;;;;;4738812;29;20047;-90
2021/10/07 11:35:40;;;;;;;7.20;4.72;;;;;;;;;;5085265;27;20409;-90
2021/10/07 11:38:25;;;;;;;5.87;5.37;;;;;;;;;;5062995;28;20059;-92
2021/10/07 11:41:04;;;;;;;6.22;5.53;;;;;;;;;;5060395;28;20287;-90
2021/10/07 11:47:33;;;;;;;;;;;;;;;;;;;;;
2021/10/07 11:54:12;;;;;;;9.57;6.05;;;;;;;;;;5036874;28;20041;-91
2021/10/07 12:11:38;;;;;;;;;;;;;;;;;;;;;
2021/10/07 12:39:41;;;;;;;3.97;3.43;;;;;;;;;;4990417;28;20023;-92
2021/10/07 12:42:13;;;;;;;2.65;2.38;;;;;;;;;;4966410;28;20333;-90
2021/10/07 12:44:45;;;;;;;3.92;2.60;;;;;;;;;;4981059;28;20066;-91
2021/10/07 12:47:16;;;;;;;6.60;2.75;;;;;;;;;;4996962;28;20041;-92
2021/10/07 12:49:58;;;;;;;3.03;2.83;;;;;;;;;;5040175;28;20041;-92
2021/10/07 12:52:30;;;;;;;4.13;2.72;;;;;;;;;;5038820;28;20105;-90
2021/10/07 12:55:00;;;;;;;4.95;2.35;;;;;;;;;;5044991;28;20052;-96
2021/10/07 12:57:43;;;;;;;2.70;2.10;;;;;;;;;;5051035;28;20053;-93
2021/10/07 13:00:19;;;;;;;2.75;2.30;;;;;;;;;;5052438;28;20132;-89
2021/10/07 13:02:47;;;;;;;2.40;2.20;;;;;;;;;;5040485;28;20095;-91
2021/10/07 13:05:17;;;;;;;2.10;1.90;;;;;;;;;;5040454;28;20042;-91
2021/10/07 13:07:46;;;;;;;4.72;2.30;;;;;;;;;;5048936;28;20056;-90
2021/10/07 13:10:14;;;;;;;2.65;2.30;;;;;;;;;;5050786;28;20215;-90
2021/10/07 13:12:42;;;;;;;5.13;2.97;;;;;;;;;;5049094;28;20099;-89
2021/10/07 13:15:10;;;;;;;5.07;2.50;;;;;;;;;;5039083;28;20069;-84
2021/10/07 13:17:53;;;;;;;2.67;2.17;;;;;;;;;;5035393;28;20041;-84
2021/10/07 13:20:21;;;;;;;4.63;2.17;;;;;;;;;;5032709;28;20071;-84
2021/10/07 13:26:00;;;;;;;2.83;1.63;;;;;;;;;;4994823;28;20137;-84
2021/10/07 13:28:43;;;;;;;2.25;1.95;;;;;;;;;;5048193;28;20063;-84
2021/10/07 13:34:00;;;;;;;2.22;1.27;;;;;;;;;;5043674;28;20068;-84
2021/10/07 13:36:28;;;;;;;2.30;1.50;;;;;;;;;;5045574;28;20076;-84
2021/10/07 13:39:07;;;;;;;3.55;1.70;;;;;;;;;;5033750;28;20048;-84
2021/10/07 13:50:15;;;;;;;2.30;1.48;;;;;;;;;;5035776;28;20100;-84
2021/10/07 13:52:43;;;;;;;4.85;2.10;;;;;;;;;;5034420;28;20124;-84
2021/10/07 13:55:12;;;;;;;2.15;1.90;;;;;;;;;;5030014;28;20050;-84
2021/10/07 14:00:24;;;;;;;3.00;2.30;;;;;;;;;;5042952;28;20544;-83
2021/10/07 14:02:51;;;;;;;2.90;2.70;;;;;;;;;;5038807;28;20132;-83
2021/10/07 14:05:23;;;;;;;5.13;2.88;;;;;;;;;;5030095;28;20033;-83
2021/10/07 14:07:51;;;;;;;4.35;3.70;;;;;;;;;;5049149;28;20049;-83
2021/10/07 14:10:21;;;;;;;5.07;3.72;;;;;;;;;;5031427;28;20049;-84
2021/10/07 14:12:48;;;;;;;5.50;3.92;;;;;;;;;;5033329;28;20069;-84
2021/10/07 14:15:16;;;;;;;5.40;4.00;;;;;;;;;;5038195;28;20042;-84
2021/10/07 14:17:46;;;;;;;4.65;4.07;;;;;;;;;;5049093;28;20044;-84
2021/10/07 14:20:14;;;;;;;8.80;4.88;;;;;;;;;;5031574;28;20057;-84
2021/10/07 14:22:41;;;;;;;4.13;3.22;;;;;;;;;;5034115;28;20065;-84
2021/10/07 14:25:09;;;;;;;4.72;3.15;;;;;;;;;;5034745;28;20041;-82
2021/10/07 14:42:56;;;;;;;15.80;3.58;;;;;;;;;;5036764;28;20060;-83
2021/10/07 14:45:46;;;;;;;5.30;2.58;;;;;;;;;;5045096;28;20037;-84
2021/10/07 14:59:07;;;;;;;2.30;2.10;;;;;;;;;;5059885;28;20545;-83
2021/10/07 15:01:52;;;;;;;5.03;2.28;;;;;;;;;;5057108;28;20115;-84
2021/10/07 15:04:31;;;;;;;2.80;2.00;;;;;;;;;;5051190;28;20101;-83
2021/10/07 15:06:58;;;;;;;1.98;1.80;;;;;;;;;;5051685;28;20471;-83
2021/10/07 15:12:12;;;;;;;2.30;1.70;;;;;;;;;;5015630;28;20083;-83
2021/10/07 15:17:26;;;;;;;3.22;2.25;;;;;;;;;;5031467;28;20033;-83
2021/10/07 15:22:54;;;;;;;2.75;2.30;;;;;;;;;;5060380;28;20040;-83
2021/10/07 15:32:10;;;;;;;5.35;2.45;;;;;;;;;;5027127;28;20045;-82
2021/10/07 15:37:49;;;;;;;7.60;2.03;;;;;;;;;;5017207;28;20114;-83
2021/10/07 15:40:46;;;;;;;4.85;2.13;;;;;;;;;;5035165;28;20072;-83
2021/10/07 15:43:28;;;;;;;4.00;2.28;;;;;;;;;;5038034;28;20500;-83
2021/10/07 15:54:43;;;;;;;4.13;2.38;;;;;;;;;;5012664;28;20052;-83
2021/10/07 16:00:16;;;;;;;1.90;1.67;;;;;;;;;;5018348;28;20052;-83
2021/10/07 16:03:23;;;;;;;5.90;2.47;;;;;;;;;;5040798;28;20102;-84
2021/10/07 16:06:07;;;;;;;;;;;;;;;;;;;;;
2021/10/07 16:09:00;;;;;;;4.13;2.20;;;;;;;;;;5020311;28;20288;-83
2021/10/07 16:14:26;;;;;;;7.57;3.00;;;;;;;;;;5043356;28;20049;-83
2021/10/07 16:16:55;;;;;;;6.13;3.05;;;;;;;;;;5023966;28;20051;-83
2021/10/07 16:19:23;;;;;;;2.60;2.38;;;;;;;;;;5019418;28;20127;-83
2021/10/07 16:21:53;;;;;;;3.40;2.15;;;;;;;;;;5033948;28;20063;-83
2021/10/07 16:24:22;;;;;;;3.75;2.50;;;;;;;;;;5018904;28;20065;-84
2021/10/07 16:26:51;;;;;;;3.83;2.83;;;;;;;;;;5052323;28;20095;-82
2021/10/07 16:29:24;;;;;;;3.83;3.15;;;;;;;;;;5038669;28;20053;-83
2021/10/07 16:31:52;;;;;;;4.55;2.65;;;;;;;;;;5039096;28;20045;-83
2021/10/07 16:34:20;;;;;;;3.42;2.60;;;;;;;;;;5039112;28;20045;-86
2021/10/07 16:36:47;;;;;;;7.60;3.83;;;;;;;;;;5037803;28;20047;-83
2021/10/07 16:39:27;;;;;;;4.80;4.28;;;;;;;;;;5070219;28;20041;-82
2021/10/07 16:41:58;;;;;;;5.13;3.03;;;;;;;;;;5038780;28;20064;-82
2021/10/07 16:44:28;;;;;;;3.80;2.67;;;;;;;;;;5024943;28;20708;-83
2021/10/07 16:46:56;;;;;;;4.40;4.00;;;;;;;;;;5055495;28;20113;-84
2021/10/07 16:49:23;;;;;;;5.93;5.43;;;;;;;;;;5035657;28;20053;-82
2021/10/07 16:51:56;;;;;;;6.55;4.63;;;;;;;;;;5054114;28;20610;-83
2021/10/07 16:54:23;;;;;;;8.02;4.53;;;;;;;;;;5055673;28;20045;-83
2021/10/07 16:56:50;;;;;;;5.47;4.97;;;;;;;;;;5053307;28;20075;-84
2021/10/07 16:59:19;;;;;;;4.72;4.25;;;;;;;;;;5053626;28;20483;-83
2021/10/07 17:01:48;;;;;;;6.30;4.22;;;;;;;;;;5056729;28;20144;-84
2021/10/07 17:04:15;;;;;;;7.68;4.35;;;;;;;;;;5039896;28;20045;-83
2021/10/07 17:06:43;;;;;;;6.30;4.65;;;;;;;;;;5039030;28;20123;-83
2021/10/07 17:09:11;;;;;;;6.30;4.05;;;;;;;;;;5063463;28;20051;-83
2021/10/07 17:11:39;;;;;;;4.20;3.80;;;;;;;;;;5066156;28;20131;-85
2021/10/07 17:14:09;;;;;;;150.98;131.88;;;;;;;;;;5066682;28;20068;-83
2021/10/07 17:16:38;;;;;;;118.45;62.97;;;;;;;;;;5066961;28;20528;-84
2021/10/07 17:19:06;;;;;;;83.63;50.03;;;;;;;;;;5057994;28;20036;-82
2021/10/07 17:21:36;;;;;;;15.05;13.52;;;;;;;;;;5064106;28;20540;-83
2021/10/07 17:24:03;;;;;;;20.30;18.17;;;;;;;;;;5057099;28;20049;-82
2021/10/07 17:26:34;;;;;;;18.98;14.88;;;;;;;;;;5052931;28;20033;-83
2021/10/07 17:29:01;;;;;;;26.33;23.58;;;;;;;;;;5053557;28;20109;-83
2021/10/07 17:31:29;;;;;;;29.20;26.35;;;;;;;;;;5053534;28;20571;-83
2021/10/07 17:33:58;;;;;;;46.55;41.78;;;;;;;;;;5053731;28;20052;-83
2021/10/07 17:36:27;;;;;;;14.68;10.65;;;;;;;;;;5051721;28;20041;-84
2021/10/07 17:38:55;;;;;;;14.52;11.73;;;;;;;;;;5045334;28;20127;-83
2021/10/07 17:41:22;;;;;;;12.73;9.60;;;;;;;;;;5066042;28;20041;-83
2021/10/07 17:43:50;;;;;;;14.98;10.95;;;;;;;;;;5046766;28;20046;-84
2021/10/07 17:46:23;;;;;;;13.18;10.70;;;;;;;;;;5042566;28;20368;-84
2021/10/07 17:48:50;;;;;;;14.30;9.27;;;;;;;;;;5055752;28;20106;-82
2021/10/07 17:51:19;;;;;;;17.98;9.60;;;;;;;;;;5043951;28;20076;-83
2021/10/07 17:53:47;;;;;;;18.80;12.70;;;;;;;;;;5052403;28;20045;-83
2021/10/07 17:56:15;;;;;;;17.75;13.15;;;;;;;;;;5045752;28;20036;-83
2021/10/07 17:58:43;;;;;;;21.63;15.00;;;;;;;;;;5078046;28;20072;-83
2021/10/07 18:01:11;;;;;;;21.95;14.18;;;;;;;;;;5090995;28;20029;-83
2021/10/07 18:03:38;;;;;;;16.55;12.43;;;;;;;;;;5075527;28;20573;-82
2021/10/07 18:06:08;;;;;;;15.43;11.70;;;;;;;;;;5075068;28;20028;-83
2021/10/07 18:08:38;;;;;;;12.85;10.02;;;;;;;;;;5094262;28;20056;-83
2021/10/07 18:11:06;;;;;;;15.65;7.72;;;;;;;;;;5073622;28;20076;-84
2021/10/07 18:13:34;;;;;;;15.02;8.98;;;;;;;;;;5054464;28;20053;-83
2021/10/07 18:16:02;;;;;;;12.18;9.20;;;;;;;;;;5055510;28;20049;-84
2021/10/07 18:18:29;;;;;;;11.90;7.57;;;;;;;;;;5056729;28;20052;-83
2021/10/07 18:20:58;;;;;;;12.52;8.10;;;;;;;;;;5065473;28;20037;-83
2021/10/07 18:23:29;;;;;;;9.82;7.38;;;;;;;;;;5034675;28;20045;-83
2021/10/07 18:25:58;;;;;;;9.18;7.28;;;;;;;;;;5051528;28;20045;-83
2021/10/07 18:28:32;;;;;;;12.13;8.10;;;;;;;;;;5060921;28;20131;-83
2021/10/07 18:31:00;;;;;;;10.95;7.03;;;;;;;;;;5063319;28;20124;-83
2021/10/07 18:33:28;;;;;;;7.57;6.72;;;;;;;;;;5050904;28;20037;-83
2021/10/07 18:35:56;;;;;;;6.85;6.25;;;;;;;;;;5035159;28;20387;-83
2021/10/07 18:38:24;;;;;;;7.55;6.47;;;;;;;;;;5038748;28;20071;-83
2021/10/07 18:40:51;;;;;;;10.90;9.52;;;;;;;;;;5037290;28;20122;-83
2021/10/07 18:43:20;;;;;;;16.98;9.77;;;;;;;;;;5052659;28;20091;-83
2021/10/07 18:45:47;;;;;;;20.35;12.38;;;;;;;;;;5060989;28;20053;-83
2021/10/07 18:48:18;;;;;;;21.08;12.32;;;;;;;;;;5035801;28;20043;-83
2021/10/07 18:50:45;;;;;;;30.52;17.48;;;;;;;;;;5060311;28;20040;-83
2021/10/07 18:53:13;;;;;;;14.13;9.93;;;;;;;;;;5065646;28;20033;-83
2021/10/07 18:55:41;;;;;;;13.98;9.40;;;;;;;;;;5052364;28;20116;-82
2021/10/07 18:58:09;;;;;;;12.10;9.52;;;;;;;;;;5066697;28;20512;-83
2021/10/07 19:00:38;;;;;;;10.70;8.60;;;;;;;;;;5065653;28;20065;-83
2021/10/07 19:03:06;;;;;;;12.18;7.53;;;;;;;;;;5054418;28;20033;-83
2021/10/07 19:05:33;;;;;;;7.93;7.15;;;;;;;;;;5039601;28;20214;-83
2021/10/07 19:08:02;;;;;;;9.52;7.63;;;;;;;;;;5054524;28;20503;-83
2021/10/07 19:10:30;;;;;;;10.43;7.53;;;;;;;;;;5054933;28;20105;-82
2021/10/07 19:12:59;;;;;;;10.52;8.05;;;;;;;;;;5048409;28;20047;-83
2021/10/07 19:15:26;;;;;;;7.95;7.13;;;;;;;;;;5069330;28;20086;-83
2021/10/07 19:17:55;;;;;;;9.30;8.32;;;;;;;;;;5041728;28;20643;-83
2021/10/07 19:20:23;;;;;;;10.63;7.75;;;;;;;;;;5063583;28;20058;-82
2021/10/07 19:22:50;;;;;;;10.30;8.40;;;;;;;;;;5047352;28;20048;-83
2021/10/07 19:25:18;;;;;;;11.23;8.93;;;;;;;;;;5051661;28;20098;-83
2021/10/07 19:27:47;;;;;;;8.88;7.97;;;;;;;;;;5053083;28;20102;-83
2021/10/07 19:30:16;;;;;;;8.13;7.32;;;;;;;;;;5035404;28;20045;-83
2021/10/07 19:32:43;;;;;;;9.13;8.15;;;;;;;;;;5038705;28;20032;-83
2021/10/07 19:35:13;;;;;;;10.98;9.43;;;;;;;;;;5035147;28;20087;-83
2021/10/07 19:37:43;;;;;;;13.65;8.85;;;;;;;;;;5056613;28;20044;-83
2021/10/07 19:40:14;;;;;;;13.05;8.82;;;;;;;;;;5016071;28;20096;-83
2021/10/07 19:42:42;;;;;;;11.18;8.02;;;;;;;;;;5018236;28;20045;-82
2021/10/07 19:45:10;;;;;;;9.30;8.40;;;;;;;;;;5020612;28;20067;-83
2021/10/07 19:47:37;;;;;;;12.07;10.15;;;;;;;;;;5036396;28;20049;-83
2021/10/07 19:50:07;;;;;;;9.57;8.13;;;;;;;;;;5051486;28;20096;-84
2021/10/07 19:52:36;;;;;;;9.73;8.63;;;;;;;;;;5042392;28;20050;-83
2021/10/07 19:55:04;;;;;;;11.40;7.68;;;;;;;;;;5021355;28;20828;-83
2021/10/07 19:57:32;;;;;;;8.77;7.95;;;;;;;;;;5038359;28;20112;-82
2021/10/07 19:59:59;;;;;;;12.27;7.93;;;;;;;;;;5048301;28;20132;-83
2021/10/07 20:02:27;;;;;;;11.40;7.38;;;;;;;;;;5048672;28;20061;-83
2021/10/07 20:04:54;;;;;;;9.13;7.40;;;;;;;;;;5031081;28;20553;-83
2021/10/07 20:07:22;;;;;;;13.52;8.70;;;;;;;;;;5037564;28;20048;-83
2021/10/07 20:09:51;;;;;;;10.68;8.40;;;;;;;;;;5032515;28;20068;-82
2021/10/07 20:12:18;;;;;;;8.05;7.25;;;;;;;;;;5049840;28;20075;-83
2021/10/07 20:14:46;;;;;;;8.35;7.47;;;;;;;;;;5027927;28;20045;-82
2021/10/07 20:17:15;;;;;;;9.13;7.07;;;;;;;;;;5049626;28;21616;-82
2021/10/07 20:19:43;;;;;;;9.55;7.72;;;;;;;;;;5035356;28;20048;-83
2021/10/07 20:22:10;;;;;;;9.73;8.43;;;;;;;;;;5035933;28;20610;-83
2021/10/07 20:24:38;;;;;;;13.80;7.82;;;;;;;;;;5043092;28;20044;-83
2021/10/07 20:27:07;;;;;;;11.90;7.85;;;;;;;;;;5050709;28;20580;-83
2021/10/07 20:29:34;;;;;;;8.35;7.55;;;;;;;;;;5034118;28;20104;-83
2021/10/07 20:32:06;;;;;;;11.90;7.65;;;;;;;;;;5037546;28;20041;-84
2021/10/07 20:34:57;;;;;;;9.13;7.20;;;;;;;;;;5049206;28;20072;-83
2021/10/07 20:37:25;;;;;;;10.15;7.15;;;;;;;;;;5070153;28;20048;-83
2021/10/07 20:39:54;;;;;;;9.43;8.40;;;;;;;;;;5085046;28;20060;-84
2021/10/07 20:42:23;;;;;;;11.23;9.68;;;;;;;;;;5077246;28;20025;-84
2021/10/07 20:44:52;;;;;;;10.68;8.02;;;;;;;;;;5079064;28;20057;-84
2021/10/07 20:47:19;;;;;;;15.18;10.57;;;;;;;;;;5068942;28;20032;-83
2021/10/07 20:49:47;;;;;;;15.63;10.13;;;;;;;;;;5065311;28;20032;-83
2021/10/07 20:52:15;;;;;;;19.02;11.27;;;;;;;;;;5092862;28;20055;-84
2021/10/07 20:54:42;;;;;;;10.20;9.10;;;;;;;;;;5058553;28;20048;-83
2021/10/07 20:57:10;;;;;;;10.18;7.97;;;;;;;;;;5041671;28;20047;-83
2021/10/07 20:59:39;;;;;;;9.98;8.93;;;;;;;;;;5058369;28;20040;-83
2021/10/07 21:02:08;;;;;;;13.00;9.55;;;;;;;;;;5072823;28;20040;-83
2021/10/07 21:04:35;;;;;;;10.57;9.48;;;;;;;;;;5057632;28;20182;-84
2021/10/07 21:07:03;;;;;;;12.25;9.38;;;;;;;;;;5058027;28;20053;-83
2021/10/07 21:09:33;;;;;;;11.90;9.60;;;;;;;;;;5060627;28;20494;-84
2021/10/07 21:12:01;;;;;;;12.52;9.20;;;;;;;;;;5058342;28;20065;-82
2021/10/07 21:14:28;;;;;;;20.88;10.65;;;;;;;;;;5064058;28;20043;-82
2021/10/07 21:16:57;;;;;;;17.23;9.75;;;;;;;;;;5063795;28;20079;-82
2021/10/07 21:19:25;;;;;;;11.35;8.90;;;;;;;;;;5066872;28;20044;-82
2021/10/07 21:21:52;;;;;;;9.93;8.57;;;;;;;;;;5072338;28;20036;-82
2021/10/07 21:24:19;;;;;;;11.88;8.68;;;;;;;;;;5036374;28;20049;-84
2021/10/07 21:26:47;;;;;;;9.93;8.73;;;;;;;;;;5046087;28;20135;-84
2021/10/07 21:29:14;;;;;;;10.02;8.98;;;;;;;;;;5041934;28;20557;-84
